createdAt,value
2023-01-26T00:01:53.518Z,21.93
2023-01-26T00:04:21.402Z,22.10
2023-01-26T00:06:49.229Z,24.83
2023-01-26T00:09:17.371Z,22.37
2023-01-26T00:11:45.205Z,23.27
2023-01-26T00:14:13.153Z,23.13
2023-01-26T00:16:41.051Z,22.70
2023-01-26T00:19:10.413Z,23.10
2023-01-26T00:21:38.269Z,22.00
2023-01-26T00:24:06.699Z,22.90
2023-01-26T00:26:34.617Z,22.30
2023-01-26T00:29:02.438Z,23.50
2023-01-26T00:31:30.566Z,22.90
2023-01-26T00:34:00.615Z,22.57
2023-01-26T00:36:31.337Z,23.40
2023-01-26T00:38:59.231Z,21.60
2023-01-26T00:41:44.956Z,22.20
2023-01-26T00:44:12.839Z,22.10
2023-01-26T00:46:41.015Z,22.67
2023-01-26T00:49:09.120Z,20.80
2023-01-26T00:51:38.313Z,23.17
2023-01-26T00:54:06.266Z,22.47
2023-01-26T00:56:34.142Z,21.40
2023-01-26T00:59:01.981Z,22.03
2023-01-26T01:01:29.887Z,22.30
2023-01-26T01:03:57.861Z,20.90
2023-01-26T01:06:25.897Z,21.50
2023-01-26T01:08:55.199Z,22.00
2023-01-26T01:11:23.133Z,21.73
2023-01-26T01:13:52.442Z,20.67
2023-01-26T01:16:20.501Z,21.10
2023-01-26T01:18:48.386Z,20.60
2023-01-26T01:21:18.318Z,22.60
2023-01-26T01:23:46.318Z,22.50
2023-01-26T01:26:16.175Z,21.90
2023-01-26T01:28:45.110Z,22.40
2023-01-26T01:31:15.166Z,22.37
2023-01-26T01:33:44.062Z,23.10
2023-01-26T01:36:14.324Z,20.90
2023-01-26T01:38:43.300Z,22.77
2023-01-26T01:41:11.862Z,21.17
2023-01-26T01:43:41.119Z,21.97
2023-01-26T01:46:17.683Z,22.80
2023-01-26T01:48:51.547Z,22.07
2023-01-26T01:51:28.860Z,21.97
2023-01-26T01:53:59.753Z,22.27
2023-01-26T01:56:30.419Z,21.57
2023-01-26T01:59:02.636Z,22.97
2023-01-26T02:01:31.239Z,23.87
2023-01-26T02:04:02.419Z,24.07
2023-01-26T02:06:34.256Z,23.17
2023-01-26T02:09:03.316Z,22.63
2023-01-26T02:11:35.680Z,23.40
2023-01-26T02:14:07.627Z,23.03
2023-01-26T02:16:35.739Z,21.40
2023-01-26T02:19:06.084Z,21.80
2023-01-26T02:21:34.325Z,24.17
2023-01-26T02:24:13.781Z,23.60
2023-01-26T02:26:43.675Z,22.50
2023-01-26T02:29:12.778Z,23.57
2023-01-26T02:31:44.519Z,21.70
2023-01-26T02:34:12.555Z,22.47
2023-01-26T02:36:40.406Z,22.40
2023-01-26T02:39:23.293Z,22.60
2023-01-26T02:42:11.546Z,23.13
2023-01-26T02:44:42.481Z,22.13
2023-01-26T02:47:15.493Z,22.27
2023-01-26T02:49:50.901Z,22.37
2023-01-26T02:52:22.516Z,21.90
2023-01-26T02:55:15.955Z,21.23
2023-01-26T02:57:46.811Z,20.90
2023-01-26T03:00:18.593Z,22.43
2023-01-26T03:02:47.557Z,21.43
2023-01-26T03:05:15.769Z,20.20
2023-01-26T03:07:43.816Z,19.93
2023-01-26T03:10:13.852Z,19.47
2023-01-26T03:12:41.958Z,20.63
2023-01-26T03:15:30.327Z,20.93
2023-01-26T03:18:36.495Z,18.50
2023-01-26T03:21:24.301Z,20.00
2023-01-26T03:24:10.337Z,18.83
2023-01-26T03:26:57.198Z,20.37
2023-01-26T03:29:26.501Z,20.43
2023-01-26T03:31:59.206Z,20.50
2023-01-26T03:34:27.505Z,21.50
2023-01-26T03:36:55.401Z,20.80
2023-01-26T03:39:40.804Z,21.97
2023-01-26T03:42:26.348Z,20.77
2023-01-26T03:45:11.728Z,21.50
2023-01-26T03:48:01.583Z,20.93
2023-01-26T03:50:48.536Z,21.23
2023-01-26T03:53:35.980Z,21.43
2023-01-26T03:56:18.291Z,20.37
2023-01-26T03:58:48.282Z,22.77
2023-01-26T04:01:19.805Z,20.90
2023-01-26T04:04:09.914Z,20.93
2023-01-26T04:06:58.853Z,20.40
2023-01-26T04:09:26.851Z,21.57
2023-01-26T04:11:54.825Z,21.03
2023-01-26T04:14:49.853Z,20.77
2023-01-26T04:17:39.154Z,20.53
2023-01-26T04:20:27.811Z,20.73
2023-01-26T04:22:55.970Z,20.47
2023-01-26T04:25:24.436Z,20.10
2023-01-26T04:27:53.042Z,20.80
2023-01-26T04:30:21.293Z,20.83
2023-01-26T04:32:52.110Z,21.67
2023-01-26T04:35:21.360Z,21.03
2023-01-26T04:37:49.562Z,20.53
2023-01-26T04:40:18.203Z,21.30
2023-01-26T04:42:47.306Z,20.73
2023-01-26T04:45:15.207Z,21.03
2023-01-26T04:47:46.005Z,19.70
2023-01-26T04:50:16.821Z,19.57
2023-01-26T04:52:47.732Z,20.00
2023-01-26T04:55:16.936Z,20.30
2023-01-26T04:57:45.395Z,21.27
2023-01-26T05:00:14.869Z,21.30
2023-01-26T05:02:43.343Z,19.40
2023-01-26T05:05:11.647Z,20.77
2023-01-26T05:07:40.243Z,20.57
2023-01-26T05:10:13.886Z,19.50
2023-01-26T05:13:04.968Z,18.87
2023-01-26T05:15:45.383Z,19.27
2023-01-26T05:18:26.351Z,19.07
2023-01-26T05:21:04.616Z,18.97
2023-01-26T05:23:40.822Z,18.27
2023-01-26T05:26:40.935Z,18.03
2023-01-26T05:29:13.796Z,19.03
2023-01-26T05:31:41.915Z,17.80
2023-01-26T05:34:10.182Z,18.77
2023-01-26T05:36:38.416Z,18.03
2023-01-26T05:39:06.692Z,18.60
2023-01-26T05:41:34.620Z,18.73
2023-01-26T05:44:24.748Z,18.20
2023-01-26T05:46:58.403Z,17.13
2023-01-26T05:49:26.400Z,16.37
2023-01-26T05:51:55.469Z,16.87
2023-01-26T05:54:24.748Z,17.33
2023-01-26T05:56:53.755Z,17.90
2023-01-26T05:59:23.178Z,16.07
2023-01-26T06:01:51.065Z,17.07
2023-01-26T06:04:19.170Z,17.37
2023-01-26T06:06:54.336Z,18.23
2023-01-26T06:09:27.334Z,18.77
2023-01-26T06:12:35.333Z,17.70
2023-01-26T06:15:17.270Z,17.60
2023-01-26T06:17:47.306Z,18.13
2023-01-26T06:20:16.550Z,17.03
2023-01-26T06:22:52.461Z,17.40
2023-01-26T06:25:20.407Z,19.13
2023-01-26T06:27:48.290Z,17.63
2023-01-26T06:30:26.505Z,19.00
2023-01-26T06:32:58.860Z,16.83
2023-01-26T06:35:28.127Z,17.13
2023-01-26T06:37:58.619Z,15.97
2023-01-26T06:40:26.606Z,17.03
2023-01-26T06:42:54.591Z,17.10
2023-01-26T06:45:22.678Z,17.07
2023-01-26T06:47:53.178Z,15.40
2023-01-26T06:50:24.205Z,16.43
2023-01-26T06:52:55.526Z,15.20
2023-01-26T06:55:39.034Z,15.60
2023-01-26T06:58:30.037Z,14.80
2023-01-26T07:01:08.310Z,14.97
2023-01-26T07:03:37.531Z,14.50
2023-01-26T07:06:07.870Z,14.43
2023-01-26T07:08:35.742Z,15.23
2023-01-26T07:11:03.544Z,15.27
2023-01-26T07:13:31.398Z,14.83
2023-01-26T07:16:02.420Z,15.87
2023-01-26T07:18:30.434Z,14.33
2023-01-26T07:21:02.832Z,14.17
2023-01-26T07:23:31.013Z,15.23
2023-01-26T07:25:59.700Z,14.90
2023-01-26T07:28:30.354Z,14.60
2023-01-26T07:30:59.344Z,13.90
2023-01-26T07:33:27.374Z,13.10
2023-01-26T07:35:55.623Z,13.10
2023-01-26T07:38:25.565Z,13.47
2023-01-26T07:40:53.951Z,12.17
2023-01-26T07:43:22.245Z,12.97
2023-01-26T07:45:53.674Z,12.90
2023-01-26T07:48:23.016Z,13.37
2023-01-26T07:50:51.338Z,13.50
2023-01-26T07:53:22.697Z,12.23
2023-01-26T07:55:52.216Z,12.00
2023-01-26T07:58:20.175Z,12.77
2023-01-26T08:00:48.125Z,11.97
2023-01-26T08:03:16.055Z,11.30
2023-01-26T08:05:44.247Z,12.07
2023-01-26T08:08:12.240Z,12.57
2023-01-26T08:10:40.123Z,11.77
2023-01-26T08:13:09.288Z,12.13
2023-01-26T08:15:37.238Z,11.53
2023-01-26T08:18:05.884Z,11.90
2023-01-26T08:20:34.922Z,11.83
2023-01-26T08:23:02.771Z,12.20
2023-01-26T08:25:32.875Z,11.70
2023-01-26T08:28:00.742Z,12.50
2023-01-26T08:30:29.933Z,13.23
2023-01-26T08:32:57.793Z,12.87
2023-01-26T08:35:25.725Z,11.53
2023-01-26T08:37:54.415Z,12.13
2023-01-26T08:40:22.221Z,11.87
2023-01-26T08:42:50.119Z,12.33
2023-01-26T08:45:18.155Z,11.43
2023-01-26T08:47:50.271Z,12.30
2023-01-26T08:50:18.407Z,12.07
2023-01-26T08:52:46.398Z,13.33
2023-01-26T08:55:14.270Z,13.00
2023-01-26T08:57:42.163Z,13.70
2023-01-26T09:00:11.777Z,11.77
2023-01-26T09:02:39.952Z,13.53
2023-01-26T09:05:10.473Z,13.83
2023-01-26T09:07:38.500Z,12.57
2023-01-26T09:10:07.840Z,12.97
2023-01-26T09:12:35.726Z,11.83
2023-01-26T09:15:04.198Z,11.93
2023-01-26T09:17:32.320Z,11.27
2023-01-26T09:20:00.136Z,12.83
2023-01-26T09:22:29.587Z,13.77
2023-01-26T09:24:57.610Z,13.43
2023-01-26T09:27:26.717Z,10.87
2023-01-26T09:29:55.184Z,12.50
2023-01-26T09:32:23.563Z,11.43
2023-01-26T09:34:51.516Z,10.83
2023-01-26T09:37:19.395Z,10.67
2023-01-26T09:39:48.595Z,10.93
2023-01-26T09:42:32.062Z,10.40
2023-01-26T09:45:10.456Z,10.13
2023-01-26T09:47:53.922Z,8.63
2023-01-26T09:50:27.626Z,8.70
2023-01-26T09:52:58.089Z,10.03
2023-01-26T09:55:30.196Z,10.93
2023-01-26T09:58:01.521Z,9.40
2023-01-26T10:00:33.592Z,9.53
2023-01-26T10:03:11.914Z,11.33
2023-01-26T10:05:45.105Z,10.47
2023-01-26T10:08:15.649Z,10.10
2023-01-26T10:10:48.191Z,9.30
2023-01-26T10:13:18.297Z,10.33
2023-01-26T10:15:50.406Z,10.43
2023-01-26T10:18:21.228Z,11.43
2023-01-26T10:20:52.371Z,10.87
2023-01-26T10:23:23.447Z,10.70
2023-01-26T10:25:54.298Z,11.10
2023-01-26T10:28:28.367Z,11.63
2023-01-26T10:30:57.049Z,10.50
2023-01-26T10:33:28.687Z,10.80
2023-01-26T10:35:56.802Z,12.13
2023-01-26T10:38:29.513Z,11.80
2023-01-26T10:41:00.467Z,11.47
2023-01-26T10:43:29.092Z,11.03
2023-01-26T10:45:56.924Z,10.70
2023-01-26T10:48:26.716Z,10.63
2023-01-26T10:50:55.795Z,11.10
2023-01-26T10:53:27.543Z,11.47
2023-01-26T10:56:02.602Z,11.27
2023-01-26T10:58:47.646Z,11.40
2023-01-26T11:01:18.887Z,13.10
2023-01-26T11:04:04.464Z,12.87
2023-01-26T11:06:33.022Z,12.93
2023-01-26T11:09:17.815Z,12.97
2023-01-26T11:11:57.673Z,12.83
2023-01-26T11:14:25.639Z,11.90
2023-01-26T11:17:00.016Z,11.90
2023-01-26T11:20:03.818Z,12.23
2023-01-26T11:22:38.419Z,12.40
2023-01-26T11:25:18.354Z,10.83
2023-01-26T11:28:00.277Z,11.27
2023-01-26T11:30:53.853Z,12.70
2023-01-26T11:33:29.901Z,11.30
2023-01-26T11:36:07.145Z,12.20
2023-01-26T11:38:40.957Z,11.63
2023-01-26T11:41:22.052Z,12.13
2023-01-26T11:44:07.853Z,13.60
2023-01-26T11:46:49.008Z,13.33
2023-01-26T11:49:33.211Z,12.40
2023-01-26T11:52:10.319Z,12.97
2023-01-26T11:55:15.631Z,12.47
2023-01-26T11:57:55.443Z,14.53
2023-01-26T12:00:34.483Z,18.00
2023-01-26T12:03:05.496Z,14.67
2023-01-26T12:05:42.608Z,15.27
2023-01-26T12:08:18.826Z,14.87
2023-01-26T12:10:51.999Z,15.13
2023-01-26T12:13:29.081Z,12.40
2023-01-26T12:16:05.830Z,13.83
2023-01-26T12:18:53.297Z,14.07
2023-01-26T12:21:29.513Z,13.20
2023-01-26T12:24:02.061Z,14.03
2023-01-26T12:26:36.059Z,14.73
2023-01-26T12:29:12.742Z,14.80
2023-01-26T12:31:49.000Z,15.43
2023-01-26T12:34:17.285Z,14.33
2023-01-26T12:36:52.442Z,13.80
2023-01-26T12:39:29.048Z,13.43
2023-01-26T12:42:16.970Z,15.60
2023-01-26T12:44:48.094Z,14.00
2023-01-26T12:47:22.808Z,14.10
2023-01-26T12:49:56.038Z,13.43
2023-01-26T12:52:29.085Z,14.43
2023-01-26T12:55:00.800Z,13.33
2023-01-26T12:57:39.679Z,14.90
2023-01-26T13:00:19.481Z,15.10
2023-01-26T13:02:52.020Z,13.07
2023-01-26T13:05:29.457Z,13.67
2023-01-26T13:07:57.703Z,15.00
2023-01-26T13:10:44.594Z,13.93
2023-01-26T13:13:30.666Z,12.93
2023-01-26T13:16:32.388Z,13.57
2023-01-26T13:19:02.290Z,14.10
2023-01-26T13:21:42.219Z,15.03
2023-01-26T13:24:43.493Z,14.63
2023-01-26T13:27:29.618Z,15.37
2023-01-26T13:29:57.774Z,14.70
2023-01-26T13:33:02.882Z,16.47
2023-01-26T13:35:33.075Z,14.80
2023-01-26T13:38:07.755Z,14.67
2023-01-26T13:40:37.509Z,13.07
2023-01-26T13:43:25.783Z,11.70
2023-01-26T13:46:01.876Z,10.73
2023-01-26T13:48:44.919Z,10.50
2023-01-26T13:51:20.717Z,11.10
2023-01-26T13:53:54.505Z,8.57
2023-01-26T13:56:28.026Z,9.97
2023-01-26T13:59:08.258Z,10.07
2023-01-26T14:01:43.223Z,9.67
2023-01-26T14:04:15.018Z,8.03
2023-01-26T14:06:48.561Z,8.73
2023-01-26T14:09:16.955Z,8.50
2023-01-26T14:11:46.779Z,8.20
2023-01-26T14:14:24.322Z,7.33
2023-01-26T14:16:52.267Z,8.10
2023-01-26T14:19:21.741Z,7.60
2023-01-26T14:21:52.903Z,8.93
2023-01-26T14:24:25.969Z,9.20
2023-01-26T14:26:55.530Z,8.13
2023-01-26T14:29:25.494Z,8.80
2023-01-26T14:31:55.463Z,9.07
2023-01-26T14:34:24.825Z,9.50
2023-01-26T14:37:07.991Z,7.87
2023-01-26T14:39:35.836Z,6.43
2023-01-26T14:42:04.577Z,6.97
2023-01-26T14:44:32.516Z,6.77
2023-01-26T14:47:05.350Z,7.27
2023-01-26T14:49:43.682Z,7.30
2023-01-26T14:52:24.944Z,7.63
2023-01-26T14:54:54.383Z,9.00
2023-01-26T14:57:25.340Z,10.50
2023-01-26T14:59:55.833Z,10.20
2023-01-26T15:02:26.165Z,9.70
2023-01-26T15:04:59.486Z,10.07
2023-01-26T15:07:35.871Z,10.33
2023-01-26T15:10:25.186Z,10.07
2023-01-26T15:12:59.080Z,12.20
2023-01-26T15:15:29.912Z,9.97
2023-01-26T15:18:18.662Z,18.63
2023-01-26T15:21:00.061Z,15.00
2023-01-26T15:23:32.045Z,13.63
2023-01-26T15:26:08.502Z,19.67
2023-01-26T15:28:37.325Z,14.80
2023-01-26T15:31:05.791Z,12.40
2023-01-26T15:33:45.438Z,14.50
2023-01-26T15:36:25.293Z,11.63
2023-01-26T15:39:01.768Z,11.87
2023-01-26T15:41:30.278Z,11.23
2023-01-26T15:43:59.440Z,11.40
2023-01-26T15:46:27.635Z,11.67
2023-01-26T15:48:55.824Z,12.03
2023-01-26T15:51:23.805Z,11.47
2023-01-26T15:53:51.597Z,12.53
2023-01-26T15:56:20.756Z,13.30
2023-01-26T15:58:48.677Z,12.30
2023-01-26T16:01:21.585Z,12.93
2023-01-26T16:03:50.585Z,12.57
2023-01-26T16:06:23.607Z,12.63
2023-01-26T16:08:52.060Z,9.97
2023-01-26T16:11:22.870Z,11.23
2023-01-26T16:14:02.881Z,11.50
2023-01-26T16:16:32.031Z,11.57
2023-01-26T16:19:00.139Z,8.50
2023-01-26T16:21:31.327Z,11.47
2023-01-26T16:23:59.609Z,12.07
2023-01-26T16:26:29.508Z,12.03
2023-01-26T16:28:57.853Z,11.27
2023-01-26T16:31:29.054Z,11.67
2023-01-26T16:33:57.566Z,10.97
2023-01-26T16:36:25.385Z,10.77
2023-01-26T16:38:53.233Z,9.93
2023-01-26T16:41:25.673Z,13.43
2023-01-26T16:43:57.358Z,9.70
2023-01-26T16:46:25.772Z,11.27
2023-01-26T16:48:53.741Z,10.10
2023-01-26T16:51:25.366Z,7.80
2023-01-26T16:53:53.677Z,9.17
2023-01-26T16:56:21.673Z,8.30
2023-01-26T16:58:49.610Z,8.03
2023-01-26T17:01:21.746Z,7.67
2023-01-26T17:03:50.942Z,10.20
2023-01-26T17:06:20.127Z,9.67
2023-01-26T17:08:48.406Z,8.03
2023-01-26T17:11:18.277Z,9.47
2023-01-26T17:13:46.584Z,11.00
2023-01-26T17:16:16.372Z,6.40
2023-01-26T17:18:46.102Z,8.47
2023-01-26T17:21:14.443Z,8.80
2023-01-26T17:23:44.368Z,9.07
2023-01-26T17:26:15.227Z,9.57
2023-01-26T17:28:43.160Z,9.67
2023-01-26T17:31:12.210Z,8.87
2023-01-26T17:33:40.661Z,9.87
2023-01-26T17:36:10.873Z,13.47
2023-01-26T17:38:38.808Z,12.00
2023-01-26T17:41:06.901Z,12.30
2023-01-26T17:43:34.946Z,12.57
2023-01-26T17:46:07.097Z,10.37
2023-01-26T17:48:37.384Z,11.10
2023-01-26T17:51:11.263Z,11.50
2023-01-26T17:53:40.026Z,12.47
2023-01-26T17:56:09.280Z,14.50
2023-01-26T17:58:37.550Z,12.97
2023-01-26T18:01:06.151Z,13.87
2023-01-26T18:03:35.439Z,15.70
2023-01-26T18:06:03.297Z,12.03
2023-01-26T18:08:32.525Z,11.83
2023-01-26T18:11:01.810Z,11.33
2023-01-26T18:13:30.436Z,11.93
2023-01-26T18:15:58.382Z,12.57
2023-01-26T18:18:27.925Z,10.87
2023-01-26T18:20:56.299Z,9.67
2023-01-26T18:23:25.246Z,13.33
2023-01-26T18:25:54.558Z,13.17
2023-01-26T18:28:22.572Z,11.73
2023-01-26T18:30:50.420Z,11.17
2023-01-26T18:33:18.417Z,10.57
2023-01-26T18:35:46.241Z,9.40
2023-01-26T18:38:14.128Z,10.93
2023-01-26T18:40:42.000Z,10.93
2023-01-26T18:43:11.260Z,12.00
2023-01-26T18:45:42.760Z,11.70
2023-01-26T18:48:10.723Z,11.87
2023-01-26T18:50:39.232Z,11.23
2023-01-26T18:53:07.183Z,12.17
2023-01-26T18:55:35.029Z,12.77
2023-01-26T18:58:02.904Z,10.83
2023-01-26T19:00:32.088Z,12.07
2023-01-26T19:03:00.116Z,6.93
2023-01-26T19:05:28.176Z,11.50
2023-01-26T19:07:56.023Z,8.27
2023-01-26T19:10:24.105Z,10.73
2023-01-26T19:12:53.245Z,11.67
2023-01-26T19:15:21.167Z,6.07
2023-01-26T19:17:51.483Z,10.33
2023-01-26T19:20:19.471Z,6.17
2023-01-26T19:22:53.709Z,6.93
2023-01-26T19:25:21.749Z,8.00
2023-01-26T19:27:49.849Z,9.17
2023-01-26T19:30:18.368Z,9.90
2023-01-26T19:33:02.910Z,10.77
2023-01-26T19:35:33.644Z,10.33
2023-01-26T19:38:01.538Z,10.63
2023-01-26T19:40:29.391Z,11.90
2023-01-26T19:42:57.293Z,7.77
2023-01-26T19:45:25.092Z,11.40
2023-01-26T19:47:52.997Z,10.73
2023-01-26T19:50:21.092Z,11.70
2023-01-26T19:52:50.379Z,11.73
2023-01-26T19:55:18.208Z,13.83
2023-01-26T19:57:46.115Z,12.17
2023-01-26T20:00:15.101Z,12.57
2023-01-26T20:02:43.019Z,10.67
2023-01-26T20:05:11.571Z,12.70
2023-01-26T20:07:39.621Z,12.27
2023-01-26T20:10:10.175Z,13.40
2023-01-26T20:12:38.088Z,14.43
2023-01-26T20:15:07.002Z,9.27
2023-01-26T20:17:35.207Z,11.43
2023-01-26T20:20:03.314Z,11.67
2023-01-26T20:22:33.911Z,11.87
2023-01-26T20:25:01.799Z,13.43
2023-01-26T20:27:31.719Z,11.93
2023-01-26T20:30:00.359Z,11.30
2023-01-26T20:32:28.605Z,11.70
2023-01-26T20:34:56.850Z,10.77
2023-01-26T20:37:24.699Z,12.30
2023-01-26T20:39:52.616Z,12.00
2023-01-26T20:42:20.521Z,13.63
2023-01-26T20:44:49.783Z,11.70
2023-01-26T20:47:17.634Z,11.77
2023-01-26T20:49:45.542Z,12.60
2023-01-26T20:52:13.340Z,11.60
2023-01-26T20:54:41.215Z,12.23
2023-01-26T20:57:09.079Z,9.27
2023-01-26T20:59:36.993Z,8.37
2023-01-26T21:02:06.232Z,10.95
2023-01-26T21:04:34.131Z,9.87
2023-01-26T21:07:01.944Z,9.83
2023-01-26T21:09:29.841Z,9.03
2023-01-26T21:11:57.743Z,9.33
2023-01-26T21:14:25.614Z,7.30
2023-01-26T21:16:53.444Z,7.80
2023-01-26T21:19:22.808Z,6.60
2023-01-26T21:21:50.739Z,5.77
2023-01-26T21:24:18.683Z,5.30
2023-01-26T21:26:47.789Z,5.73
2023-01-26T21:29:17.071Z,6.37
2023-01-26T21:31:48.672Z,5.83
2023-01-26T21:34:16.607Z,6.27
2023-01-26T21:36:45.888Z,6.00
2023-01-26T21:39:15.318Z,6.13
2023-01-26T21:41:59.159Z,6.20
2023-01-26T21:44:28.731Z,4.90
2023-01-26T21:46:58.428Z,5.30
2023-01-26T21:49:28.378Z,6.10
2023-01-26T21:52:15.897Z,5.10
2023-01-26T21:54:44.145Z,5.13
2023-01-26T21:57:26.367Z,5.33
2023-01-26T21:59:54.276Z,5.00
2023-01-26T22:02:22.500Z,5.07
2023-01-26T22:04:50.571Z,4.03
2023-01-26T22:07:19.759Z,3.30
2023-01-26T22:09:48.066Z,4.37
2023-01-26T22:12:16.522Z,5.37
2023-01-26T22:14:45.947Z,4.60
2023-01-26T22:17:13.802Z,3.53
2023-01-26T22:19:41.783Z,4.37
2023-01-26T22:22:09.655Z,4.77
2023-01-26T22:24:38.870Z,3.40
2023-01-26T22:27:08.156Z,4.50
2023-01-26T22:29:36.274Z,4.00
2023-01-26T22:32:04.200Z,4.27
2023-01-26T22:34:32.484Z,2.73
2023-01-26T22:37:00.319Z,3.30
2023-01-26T22:39:28.178Z,3.47
2023-01-26T22:41:57.292Z,2.47
2023-01-26T22:44:25.198Z,3.23
2023-01-26T22:46:53.145Z,2.23
2023-01-26T22:49:21.125Z,2.40
2023-01-26T22:51:48.929Z,3.37
2023-01-26T22:54:16.886Z,3.70
2023-01-26T22:56:44.692Z,3.87
2023-01-26T22:59:13.948Z,3.30
2023-01-26T23:01:42.684Z,3.20
2023-01-26T23:04:11.183Z,3.07
2023-01-26T23:06:39.153Z,3.33
2023-01-26T23:09:07.066Z,2.77
2023-01-26T23:11:34.889Z,2.60
2023-01-26T23:14:02.757Z,2.70
2023-01-26T23:16:32.123Z,2.90
2023-01-26T23:19:00.559Z,3.07
2023-01-26T23:21:30.502Z,3.70
2023-01-26T23:23:58.517Z,2.83
2023-01-26T23:26:26.473Z,3.90
2023-01-26T23:28:54.762Z,3.70
2023-01-26T23:31:23.097Z,3.70
2023-01-26T23:33:52.420Z,3.30
2023-01-26T23:36:20.794Z,2.57
2023-01-26T23:38:48.687Z,3.60
2023-01-26T23:41:16.673Z,3.07
2023-01-26T23:43:44.668Z,2.83
2023-01-26T23:46:13.260Z,3.23
2023-01-26T23:48:41.425Z,3.40
2023-01-26T23:51:12.552Z,2.27
2023-01-26T23:53:40.604Z,3.70
2023-01-26T23:56:10.717Z,3.37
2023-01-26T23:58:38.627Z,3.13
